createdAt,value
2023-01-13T00:01:10.443Z,99417.00
2023-01-13T00:03:37.740Z,99421.00
2023-01-13T00:06:05.355Z,99418.00
2023-01-13T00:08:32.298Z,99421.00
2023-01-13T00:10:59.023Z,99405.00
2023-01-13T00:13:28.570Z,99415.00
2023-01-13T00:16:07.613Z,99414.00
2023-01-13T00:18:36.804Z,99409.00
2023-01-13T00:21:12.557Z,99416.00
2023-01-13T00:23:39.986Z,99417.00
2023-01-13T00:26:09.731Z,99392.00
2023-01-13T00:28:38.411Z,99386.00
2023-01-13T00:31:13.847Z,99405.00
2023-01-13T00:33:40.915Z,99416.00
2023-01-13T00:36:08.756Z,99408.00
2023-01-13T00:38:38.821Z,99409.00
2023-01-13T00:41:07.823Z,99402.00
2023-01-13T00:43:35.660Z,99395.00
2023-01-13T00:46:03.636Z,99397.00
2023-01-13T00:48:30.966Z,99402.00
2023-01-13T00:51:12.060Z,99399.00
2023-01-13T00:53:40.938Z,99412.00
2023-01-13T00:56:11.222Z,99407.00
2023-01-13T00:58:37.781Z,99399.00
2023-01-13T01:01:07.032Z,99397.00
2023-01-13T01:03:34.314Z,99393.00
2023-01-13T01:06:06.198Z,99405.00
2023-01-13T01:08:33.837Z,99389.00
2023-01-13T01:11:05.765Z,99416.00
2023-01-13T01:13:32.774Z,99410.00
2023-01-13T01:15:59.979Z,99416.00
2023-01-13T01:18:26.663Z,99405.00
2023-01-13T01:20:53.314Z,99408.00
2023-01-13T01:23:19.938Z,99406.00
2023-01-13T01:25:46.508Z,99401.00
2023-01-13T01:28:13.223Z,99415.00
2023-01-13T01:30:39.890Z,99414.00
2023-01-13T01:33:06.475Z,99407.00
2023-01-13T01:35:33.150Z,99412.00
2023-01-13T01:37:59.752Z,99390.00
2023-01-13T01:40:27.249Z,99391.00
2023-01-13T01:43:12.121Z,99387.00
2023-01-13T01:45:38.755Z,99402.00
2023-01-13T01:48:05.959Z,99387.00
2023-01-13T01:50:32.892Z,99392.00
2023-01-13T01:53:14.128Z,99389.00
2023-01-13T01:55:40.949Z,99393.00
2023-01-13T01:58:14.673Z,99365.00
2023-01-13T02:00:41.332Z,99393.00
2023-01-13T02:03:08.466Z,99384.00
2023-01-13T02:05:35.424Z,99387.00
2023-01-13T02:08:02.657Z,99377.00
2023-01-13T02:10:30.304Z,99383.00
2023-01-13T02:13:00.266Z,99367.00
2023-01-13T02:15:42.714Z,99358.00
2023-01-13T02:18:28.634Z,99371.00
2023-01-13T02:21:31.681Z,99381.00
2023-01-13T02:24:38.268Z,99368.00
2023-01-13T02:27:31.894Z,99367.00
2023-01-13T02:30:32.849Z,99358.00
2023-01-13T02:33:25.392Z,99357.00
2023-01-13T02:36:21.274Z,99364.00
2023-01-13T02:38:58.760Z,99363.00
2023-01-13T02:41:57.261Z,99360.00
2023-01-13T02:44:31.901Z,99356.00
2023-01-13T02:47:06.374Z,99362.00
2023-01-13T02:49:39.884Z,99362.00
2023-01-13T02:52:10.980Z,99363.00
2023-01-13T02:54:39.184Z,99370.00
2023-01-13T02:57:07.103Z,99365.00
2023-01-13T02:59:34.371Z,99361.00
2023-01-13T03:02:01.290Z,99360.00
2023-01-13T03:04:47.736Z,99364.00
2023-01-13T03:07:55.611Z,99358.00
2023-01-13T03:10:28.009Z,99356.00
2023-01-13T03:13:15.057Z,99347.00
2023-01-13T03:16:09.182Z,99355.00
2023-01-13T03:18:43.406Z,99364.00
2023-01-13T03:21:21.547Z,99354.00
2023-01-13T03:24:09.874Z,99357.00
2023-01-13T03:26:48.383Z,99351.00
2023-01-13T03:29:34.592Z,99355.00
2023-01-13T03:32:28.561Z,99331.00
2023-01-13T03:35:09.173Z,99334.00
2023-01-13T03:37:39.929Z,99341.00
2023-01-13T03:40:14.075Z,99346.00
2023-01-13T03:42:41.907Z,99345.00
2023-01-13T03:45:17.673Z,99333.00
2023-01-13T03:47:48.346Z,99338.00
2023-01-13T03:50:23.635Z,99341.00
2023-01-13T03:52:53.640Z,99344.00
2023-01-13T03:55:27.810Z,99344.00
2023-01-13T03:58:14.293Z,99340.00
2023-01-13T04:00:56.329Z,99346.00
2023-01-13T04:03:46.197Z,99340.00
2023-01-13T04:06:18.863Z,99361.00
2023-01-13T04:09:11.569Z,99348.00
2023-01-13T04:11:45.501Z,99347.00
2023-01-13T04:14:13.101Z,99337.00
2023-01-13T04:16:40.164Z,99336.00
2023-01-13T04:19:06.698Z,99335.00
2023-01-13T04:21:34.357Z,99335.00
2023-01-13T04:24:01.132Z,99345.00
2023-01-13T04:26:27.664Z,99332.00
2023-01-13T04:28:55.342Z,99334.00
2023-01-13T04:31:21.942Z,99328.00
2023-01-13T04:33:48.578Z,99332.00
2023-01-13T04:36:15.674Z,99334.00
2023-01-13T04:38:42.347Z,99331.00
2023-01-13T04:41:08.875Z,99339.00
2023-01-13T04:43:35.515Z,99343.00
2023-01-13T04:46:02.160Z,99343.00
2023-01-13T04:48:28.719Z,99351.00
2023-01-13T04:50:55.316Z,99349.00
2023-01-13T04:53:21.852Z,99338.00
2023-01-13T04:55:49.601Z,99344.00
2023-01-13T04:58:16.200Z,99343.00
2023-01-13T05:00:42.944Z,99342.00
2023-01-13T05:03:09.625Z,99326.00
2023-01-13T05:05:36.266Z,99346.00
2023-01-13T05:08:03.171Z,99358.00
2023-01-13T05:10:29.898Z,99349.00
2023-01-13T05:13:15.181Z,99364.00
2023-01-13T05:16:00.602Z,99365.00
2023-01-13T05:18:28.421Z,99364.00
2023-01-13T05:20:55.047Z,99356.00
2023-01-13T05:23:40.300Z,99373.00
2023-01-13T05:26:07.045Z,99358.00
2023-01-13T05:28:34.210Z,99362.00
2023-01-13T05:31:00.922Z,99356.00
2023-01-13T05:33:29.472Z,99353.00
2023-01-13T05:35:56.073Z,99368.00
2023-01-13T05:38:22.684Z,99359.00
2023-01-13T05:41:07.931Z,99354.00
2023-01-13T05:43:34.870Z,99349.00
2023-01-13T05:46:09.798Z,99352.00
2023-01-13T05:48:41.804Z,99359.00
2023-01-13T05:51:10.348Z,99368.00
2023-01-13T05:53:37.142Z,99357.00
2023-01-13T05:56:05.183Z,99368.00
2023-01-13T05:58:31.890Z,99379.00
2023-01-13T06:01:03.837Z,99358.00
2023-01-13T06:03:30.784Z,99371.00
2023-01-13T06:06:02.029Z,99375.00
2023-01-13T06:08:28.710Z,99384.00
2023-01-13T06:10:55.244Z,99383.00
2023-01-13T06:13:21.961Z,99370.00
2023-01-13T06:15:48.622Z,99364.00
2023-01-13T06:18:15.317Z,99378.00
2023-01-13T06:20:41.848Z,99380.00
2023-01-13T06:23:10.806Z,99382.00
2023-01-13T06:26:15.455Z,99380.00
2023-01-13T06:28:42.114Z,99379.00
2023-01-13T06:31:09.211Z,99399.00
2023-01-13T06:33:57.525Z,99398.00
2023-01-13T06:36:29.401Z,99411.00
2023-01-13T06:38:59.673Z,99408.00
2023-01-13T06:41:46.066Z,99407.00
2023-01-13T06:44:12.666Z,99403.00
2023-01-13T06:46:39.257Z,99400.00
2023-01-13T06:49:07.010Z,99401.00
2023-01-13T06:51:33.514Z,99395.00
2023-01-13T06:54:00.093Z,99395.00
2023-01-13T06:56:26.673Z,99408.00
2023-01-13T06:58:53.284Z,99397.00
2023-01-13T07:01:19.924Z,99367.00
2023-01-13T07:03:46.611Z,99376.00
2023-01-13T07:06:13.142Z,99387.00
2023-01-13T07:08:39.692Z,99407.00
2023-01-13T07:11:06.921Z,99399.00
2023-01-13T07:13:53.626Z,99405.00
2023-01-13T07:16:20.209Z,99407.00
2023-01-13T07:18:47.198Z,99390.00
2023-01-13T07:21:18.612Z,99374.00
2023-01-13T07:23:45.240Z,99398.00
2023-01-13T07:26:12.011Z,99396.00
2023-01-13T07:28:39.207Z,99386.00
2023-01-13T07:31:11.853Z,99395.00
2023-01-13T07:33:38.643Z,99393.00
2023-01-13T07:36:08.597Z,99399.00
2023-01-13T07:38:35.616Z,99401.00
2023-01-13T07:41:20.886Z,99390.00
2023-01-13T07:43:47.907Z,99371.00
2023-01-13T07:46:14.615Z,99366.00
2023-01-13T07:48:41.250Z,99380.00
2023-01-13T07:51:10.391Z,99384.00
2023-01-13T07:53:37.379Z,99370.00
2023-01-13T07:56:05.793Z,99392.00
2023-01-13T07:58:36.320Z,99383.00
2023-01-13T08:01:13.552Z,99407.00
2023-01-13T08:03:40.959Z,99412.00
2023-01-13T08:06:07.979Z,99387.00
2023-01-13T08:08:34.551Z,99397.00
2023-01-13T08:11:02.069Z,99412.00
2023-01-13T08:13:28.740Z,99422.00
2023-01-13T08:16:07.063Z,99433.00
2023-01-13T08:18:34.421Z,99443.00
2023-01-13T08:21:03.785Z,99451.00
2023-01-13T08:23:30.373Z,99436.00
2023-01-13T08:26:04.457Z,99450.00
2023-01-13T08:28:31.322Z,99444.00
2023-01-13T08:31:02.197Z,99448.00
2023-01-13T08:33:29.510Z,99456.00
2023-01-13T08:35:56.295Z,99462.00
2023-01-13T08:38:23.405Z,99469.00
2023-01-13T08:40:50.020Z,99472.00
2023-01-13T08:43:16.582Z,99465.00
2023-01-13T08:45:43.190Z,99440.00
2023-01-13T08:48:09.792Z,99431.00
2023-01-13T08:50:36.426Z,99435.00
2023-01-13T08:53:02.942Z,99444.00
2023-01-13T08:55:29.542Z,99449.00
2023-01-13T08:58:06.422Z,99456.00
2023-01-13T09:00:40.919Z,99473.00
2023-01-13T09:03:07.458Z,99488.00
2023-01-13T09:05:35.591Z,99487.00
2023-01-13T09:08:02.132Z,99485.00
2023-01-13T09:10:28.669Z,99488.00
2023-01-13T09:13:13.706Z,99488.00
2023-01-13T09:15:41.759Z,99479.00
2023-01-13T09:18:08.468Z,99466.00
2023-01-13T09:20:35.319Z,99405.00
2023-01-13T09:23:01.880Z,99346.00
2023-01-13T09:25:28.491Z,99394.00
2023-01-13T09:27:55.031Z,99392.00
2023-01-13T09:30:21.666Z,99382.00
2023-01-13T09:32:48.312Z,99440.00
2023-01-13T09:35:17.347Z,99447.00
2023-01-13T09:37:44.574Z,99432.00
2023-01-13T09:40:19.441Z,99407.00
2023-01-13T09:43:13.671Z,99448.00
2023-01-13T09:46:02.479Z,99437.00
2023-01-13T09:48:51.679Z,99435.00
2023-01-13T09:51:43.202Z,99436.00
2023-01-13T09:54:31.988Z,99432.00
2023-01-13T09:56:59.589Z,99435.00
2023-01-13T09:59:32.521Z,99443.00
2023-01-13T10:02:19.270Z,99443.00
2023-01-13T10:05:03.022Z,99445.00
2023-01-13T10:07:31.961Z,99458.00
2023-01-13T10:09:59.748Z,99459.00
2023-01-13T10:12:45.505Z,99458.00
2023-01-13T10:15:17.832Z,99454.00
2023-01-13T10:17:58.685Z,99457.00
2023-01-13T10:20:40.499Z,99468.00
2023-01-13T10:23:38.910Z,99457.00
2023-01-13T10:26:08.541Z,99456.00
2023-01-13T10:28:34.991Z,99459.00
2023-01-13T10:31:10.352Z,99464.00
2023-01-13T10:33:36.918Z,99467.00
2023-01-13T10:36:13.874Z,99462.00
2023-01-13T10:38:45.593Z,99468.00
2023-01-13T10:41:12.059Z,99460.00
2023-01-13T10:43:38.682Z,99462.00
2023-01-13T10:46:10.015Z,99461.00
2023-01-13T10:48:38.083Z,99462.00
2023-01-13T10:51:39.969Z,99455.00
2023-01-13T10:54:17.742Z,99457.00
2023-01-13T10:56:45.258Z,99461.00
2023-01-13T10:59:26.704Z,99451.00
2023-01-13T11:01:59.640Z,99457.00
2023-01-13T11:04:38.510Z,99461.00
2023-01-13T11:07:16.700Z,99466.00
2023-01-13T11:09:43.214Z,99456.00
2023-01-13T11:12:30.894Z,99459.00
2023-01-13T11:15:03.252Z,99454.00
2023-01-13T11:17:40.321Z,99456.00
2023-01-13T11:20:19.463Z,99462.00
2023-01-13T11:22:55.549Z,99475.00
2023-01-13T11:25:41.332Z,99459.00
2023-01-13T11:28:29.693Z,99465.00
2023-01-13T11:31:26.183Z,99463.00
2023-01-13T11:34:11.410Z,99457.00
2023-01-13T11:36:40.674Z,99454.00
2023-01-13T11:39:14.471Z,99453.00
2023-01-13T11:42:13.920Z,99467.00
2023-01-13T11:44:48.792Z,99463.00
2023-01-13T11:47:17.326Z,99449.00
2023-01-13T11:49:48.457Z,99455.00
2023-01-13T11:52:23.572Z,99450.00
2023-01-13T11:55:18.089Z,99471.00
2023-01-13T11:58:19.253Z,99448.00
2023-01-13T12:01:13.594Z,99464.00
2023-01-13T12:03:43.762Z,99463.00
2023-01-13T12:06:16.558Z,99470.00
2023-01-13T12:08:58.339Z,99470.00
2023-01-13T12:11:34.175Z,99458.00
2023-01-13T12:14:06.656Z,99474.00
2023-01-13T12:16:33.601Z,99464.00
2023-01-13T12:19:25.583Z,99457.00
2023-01-13T12:22:08.831Z,99460.00
2023-01-13T12:24:41.220Z,99452.00
2023-01-13T12:27:16.083Z,99463.00
2023-01-13T12:29:43.795Z,99454.00
2023-01-13T12:32:16.205Z,99456.00
2023-01-13T12:34:50.764Z,99468.00
2023-01-13T12:37:38.167Z,99462.00
2023-01-13T12:40:29.760Z,99468.00
2023-01-13T12:43:36.258Z,99468.00
2023-01-13T12:46:21.495Z,99469.00
2023-01-13T12:48:57.233Z,99472.00
2023-01-13T12:51:37.909Z,99480.00
2023-01-13T12:54:43.388Z,99474.00
2023-01-13T12:57:19.080Z,99471.00
2023-01-13T13:00:06.273Z,99470.00
2023-01-13T13:02:38.030Z,99476.00
2023-01-13T13:05:22.882Z,99492.00
2023-01-13T13:08:04.448Z,99492.00
2023-01-13T13:10:34.546Z,99483.00
2023-01-13T13:13:18.020Z,99484.00
2023-01-13T13:15:52.702Z,99470.00
2023-01-13T13:18:20.353Z,99479.00
2023-01-13T13:21:02.941Z,99486.00
2023-01-13T13:23:33.245Z,99485.00
2023-01-13T13:26:19.882Z,99497.00
2023-01-13T13:28:58.813Z,99495.00
2023-01-13T13:31:44.211Z,99504.00
2023-01-13T13:34:22.952Z,99506.00
2023-01-13T13:37:04.433Z,99506.00
2023-01-13T13:39:50.660Z,99504.00
2023-01-13T13:42:55.743Z,99509.00
2023-01-13T13:45:44.119Z,99508.00
2023-01-13T13:48:29.189Z,99514.00
2023-01-13T13:51:01.847Z,99515.00
2023-01-13T13:53:33.504Z,99511.00
2023-01-13T13:56:02.458Z,99521.00
2023-01-13T13:58:31.505Z,99514.00
2023-01-13T14:00:58.394Z,99518.00
2023-01-13T14:03:28.831Z,99518.00
2023-01-13T14:05:58.393Z,99518.00
2023-01-13T14:08:26.781Z,99524.00
2023-01-13T14:10:53.440Z,99520.00
2023-01-13T14:13:28.672Z,99518.00
2023-01-13T14:16:01.182Z,99518.00
2023-01-13T14:18:29.861Z,99516.00
2023-01-13T14:21:05.782Z,99514.00
2023-01-13T14:23:32.984Z,99515.00
2023-01-13T14:26:12.841Z,99515.00
2023-01-13T14:28:40.356Z,99531.00
2023-01-13T14:31:08.251Z,99531.00
2023-01-13T14:33:39.371Z,99534.00
2023-01-13T14:36:13.858Z,99522.00
2023-01-13T14:38:41.381Z,99540.00
2023-01-13T14:41:20.399Z,99531.00
2023-01-13T14:43:48.587Z,99540.00
2023-01-13T14:46:17.507Z,99529.00
2023-01-13T14:48:47.065Z,99529.00
2023-01-13T14:51:14.356Z,99542.00
2023-01-13T14:53:47.083Z,99545.00
2023-01-13T14:56:39.113Z,99550.00
2023-01-13T14:59:34.035Z,99540.00
2023-01-13T15:02:02.912Z,99539.00
2023-01-13T15:04:38.262Z,99541.00
2023-01-13T15:07:05.441Z,99538.00
2023-01-13T15:09:40.172Z,99533.00
2023-01-13T15:12:17.041Z,99531.00
2023-01-13T15:14:43.695Z,99541.00
2023-01-13T15:17:16.205Z,99540.00
2023-01-13T15:19:42.945Z,99537.00
2023-01-13T15:22:09.406Z,99548.00
2023-01-13T15:24:35.950Z,99556.00
2023-01-13T15:27:04.427Z,99557.00
2023-01-13T15:29:31.020Z,99555.00
2023-01-13T15:31:58.194Z,99555.00
2023-01-13T15:34:24.871Z,99568.00
2023-01-13T15:36:51.373Z,99567.00
2023-01-13T15:39:17.873Z,99569.00
2023-01-13T15:42:03.121Z,99570.00
2023-01-13T15:44:48.096Z,99582.00
2023-01-13T15:47:14.875Z,99584.00
2023-01-13T15:49:46.029Z,99574.00
2023-01-13T15:52:21.611Z,99575.00
2023-01-13T15:54:48.873Z,99578.00
2023-01-13T15:57:22.059Z,99579.00
2023-01-13T15:59:50.475Z,99587.00
2023-01-13T16:02:31.386Z,99575.00
2023-01-13T16:05:02.074Z,99585.00
2023-01-13T16:07:28.776Z,99589.00
2023-01-13T16:09:55.505Z,99588.00
2023-01-13T16:12:24.288Z,99598.00
2023-01-13T16:14:50.979Z,99603.00
2023-01-13T16:17:23.183Z,99593.00
2023-01-13T16:19:49.837Z,99595.00
2023-01-13T16:22:16.819Z,99599.00
2023-01-13T16:24:44.222Z,99606.00
2023-01-13T16:27:13.757Z,99613.00
2023-01-13T16:29:40.779Z,99612.00
2023-01-13T16:32:07.407Z,99607.00
2023-01-13T16:34:34.019Z,99613.00
2023-01-13T16:37:00.655Z,99616.00
2023-01-13T16:39:27.187Z,99626.00
2023-01-13T16:41:53.965Z,99623.00
2023-01-13T16:44:20.635Z,99645.00
2023-01-13T16:46:47.652Z,99641.00
2023-01-13T16:49:15.647Z,99650.00
2023-01-13T16:51:42.194Z,99649.00
2023-01-13T16:54:08.775Z,99658.00
2023-01-13T16:56:39.266Z,99658.00
2023-01-13T16:59:07.528Z,99654.00
2023-01-13T17:01:37.216Z,99660.00
2023-01-13T17:04:05.467Z,99658.00
2023-01-13T17:06:35.951Z,99648.00
2023-01-13T17:09:17.284Z,99667.00
2023-01-13T17:11:43.934Z,99673.00
2023-01-13T17:14:19.345Z,99669.00
2023-01-13T17:16:46.853Z,99670.00
2023-01-13T17:19:13.649Z,99665.00
2023-01-13T17:21:40.403Z,99681.00
2023-01-13T17:24:12.558Z,99683.00
2023-01-13T17:26:43.897Z,99683.00
2023-01-13T17:29:23.268Z,99693.00
2023-01-13T17:31:50.553Z,99687.00
2023-01-13T17:34:17.381Z,99696.00
2023-01-13T17:36:44.006Z,99688.00
2023-01-13T17:39:26.658Z,99693.00
2023-01-13T17:41:55.865Z,99696.00
2023-01-13T17:44:23.783Z,99694.00
2023-01-13T17:46:52.656Z,99695.00
2023-01-13T17:49:21.163Z,99706.00
2023-01-13T17:51:48.473Z,99695.00
2023-01-13T17:54:15.670Z,99695.00
2023-01-13T17:56:42.364Z,99702.00
2023-01-13T17:59:10.578Z,99704.00
2023-01-13T18:01:37.998Z,99693.00
2023-01-13T18:04:04.708Z,99695.00
2023-01-13T18:06:31.309Z,99701.00
2023-01-13T18:08:59.783Z,99705.00
2023-01-13T18:11:26.957Z,99686.00
2023-01-13T18:13:55.110Z,99713.00
2023-01-13T18:16:21.856Z,99700.00
2023-01-13T18:18:50.467Z,99707.00
2023-01-13T18:21:40.411Z,99721.00
2023-01-13T18:24:29.819Z,99708.00
2023-01-13T18:27:15.578Z,99709.00
2023-01-13T18:29:42.207Z,99717.00
2023-01-13T18:32:09.000Z,99718.00
2023-01-13T18:34:36.468Z,99725.00
2023-01-13T18:37:03.251Z,99725.00
2023-01-13T18:39:29.926Z,99721.00
2023-01-13T18:42:15.024Z,99728.00
2023-01-13T18:44:41.567Z,99731.00
2023-01-13T18:47:08.715Z,99737.00
2023-01-13T18:49:35.351Z,99736.00
2023-01-13T18:52:02.034Z,99745.00
2023-01-13T18:54:28.541Z,99756.00
2023-01-13T18:56:56.063Z,99756.00
2023-01-13T18:59:24.442Z,99759.00
2023-01-13T19:01:51.893Z,99758.00
2023-01-13T19:04:18.561Z,99753.00
2023-01-13T19:06:51.576Z,99757.00
2023-01-13T19:09:22.606Z,99760.00
2023-01-13T19:11:50.412Z,99766.00
2023-01-13T19:14:33.990Z,99775.00
2023-01-13T19:17:09.663Z,99768.00
2023-01-13T19:19:50.682Z,99782.00
2023-01-13T19:22:19.774Z,99773.00
2023-01-13T19:24:46.539Z,99789.00
2023-01-13T19:27:14.931Z,99789.00
2023-01-13T19:29:46.956Z,99788.00
2023-01-13T19:32:19.233Z,99785.00
2023-01-13T19:34:47.645Z,99806.00
2023-01-13T19:37:17.195Z,99821.00
2023-01-13T19:39:43.763Z,99806.00
2023-01-13T19:42:30.736Z,99807.00
2023-01-13T19:45:15.929Z,99810.00
2023-01-13T19:47:45.213Z,99823.00
2023-01-13T19:50:13.408Z,99823.00
2023-01-13T19:52:40.091Z,99810.00
2023-01-13T19:55:07.373Z,99813.00
2023-01-13T19:57:33.893Z,99817.00
2023-01-13T20:00:00.510Z,99820.00
2023-01-13T20:02:31.691Z,99830.00
2023-01-13T20:05:00.211Z,99831.00
2023-01-13T20:07:28.568Z,99821.00
2023-01-13T20:09:57.929Z,99831.00
2023-01-13T20:12:25.374Z,99827.00
2023-01-13T20:14:52.568Z,99842.00
2023-01-13T20:17:21.042Z,99842.00
2023-01-13T20:19:47.769Z,99849.00
2023-01-13T20:22:14.577Z,99861.00
2023-01-13T20:24:41.557Z,99857.00
2023-01-13T20:27:08.647Z,99864.00
2023-01-13T20:29:35.812Z,99860.00
2023-01-13T20:32:02.724Z,99859.00
2023-01-13T20:34:29.810Z,99869.00
2023-01-13T20:36:56.525Z,99873.00
2023-01-13T20:39:26.416Z,99868.00
2023-01-13T20:42:12.331Z,99867.00
2023-01-13T20:44:41.228Z,99881.00
2023-01-13T20:47:07.872Z,99867.00
2023-01-13T20:49:36.172Z,99885.00
2023-01-13T20:52:09.122Z,99884.00
2023-01-13T20:54:40.326Z,99881.00
2023-01-13T20:57:09.966Z,99873.00
2023-01-13T20:59:38.086Z,99873.00
2023-01-13T21:02:10.586Z,99870.00
2023-01-13T21:04:37.209Z,99862.00
2023-01-13T21:07:04.048Z,99869.00
2023-01-13T21:09:30.767Z,99864.00
2023-01-13T21:12:15.971Z,99871.00
2023-01-13T21:15:02.982Z,99871.00
2023-01-13T21:17:48.106Z,99873.00
2023-01-13T21:20:15.631Z,99875.00
2023-01-13T21:22:46.710Z,99854.00
2023-01-13T21:25:16.027Z,99884.00
2023-01-13T21:27:45.676Z,99886.00
2023-01-13T21:30:15.346Z,99888.00
2023-01-13T21:32:43.027Z,99887.00
2023-01-13T21:35:10.474Z,99890.00
2023-01-13T21:37:37.898Z,99896.00
2023-01-13T21:40:06.459Z,99902.00
2023-01-13T21:42:51.757Z,99895.00
2023-01-13T21:45:37.308Z,99887.00
2023-01-13T21:48:04.192Z,99910.00
2023-01-13T21:50:30.930Z,99914.00
2023-01-13T21:52:57.767Z,99921.00
2023-01-13T21:55:28.190Z,99929.00
2023-01-13T21:57:55.759Z,99928.00
2023-01-13T22:00:24.414Z,99925.00
2023-01-13T22:02:51.204Z,99930.00
2023-01-13T22:05:19.220Z,99926.00
2023-01-13T22:07:46.195Z,99930.00
2023-01-13T22:10:14.749Z,99940.00
2023-01-13T22:12:43.181Z,99945.00
2023-01-13T22:15:11.663Z,99940.00
2023-01-13T22:17:38.424Z,99941.00
2023-01-13T22:20:05.549Z,99949.00
2023-01-13T22:22:36.686Z,99946.00
2023-01-13T22:25:08.864Z,99947.00
2023-01-13T22:27:40.757Z,99945.00
2023-01-13T22:30:11.736Z,99948.00
2023-01-13T22:32:38.684Z,99951.00
2023-01-13T22:35:06.765Z,99948.00
2023-01-13T22:37:34.094Z,99958.00
2023-01-13T22:40:07.148Z,99952.00
2023-01-13T22:42:40.390Z,99961.00
2023-01-13T22:45:10.283Z,99951.00
2023-01-13T22:47:37.011Z,99910.00
2023-01-13T22:50:04.544Z,99976.00
2023-01-13T22:52:31.176Z,99975.00
2023-01-13T22:55:00.664Z,99973.00
2023-01-13T22:57:47.763Z,99983.00
2023-01-13T23:00:18.682Z,99977.00
2023-01-13T23:02:45.314Z,99991.00
2023-01-13T23:05:13.674Z,99990.00
2023-01-13T23:07:40.182Z,99996.00
2023-01-13T23:10:07.014Z,99997.00
2023-01-13T23:12:33.635Z,100003.00
2023-01-13T23:15:00.191Z,99998.00
2023-01-13T23:17:26.824Z,99997.00
2023-01-13T23:19:58.771Z,99997.00
2023-01-13T23:22:26.322Z,99996.00
2023-01-13T23:24:52.947Z,99991.00
2023-01-13T23:27:19.455Z,99987.00
2023-01-13T23:29:45.992Z,100001.00
2023-01-13T23:32:12.520Z,100007.00
2023-01-13T23:34:39.111Z,99988.00
2023-01-13T23:37:05.742Z,100009.00
2023-01-13T23:39:32.321Z,100012.00
2023-01-13T23:41:59.474Z,100006.00
2023-01-13T23:44:26.925Z,100006.00
2023-01-13T23:46:53.512Z,100006.00
2023-01-13T23:49:20.156Z,100007.00
2023-01-13T23:51:50.015Z,100012.00
2023-01-13T23:54:16.824Z,100008.00
2023-01-13T23:56:43.688Z,100018.00
2023-01-13T23:59:10.273Z,100017.00
